F/V Berceaudelocean — FQEB — position and weather

sailwx.info

Track history (hours):
 
Tides and Currents Weather Stations Pressure Air Temp Water Temp Dewpoint Dewpoint Depression Visibility Wind Speed Wind Dir Waves Ship Positions

F/V Berceaudelocean

Last reported at 2017-Nov-19 23:37 UTC. Time now 2017-Nov-22 15:05 UTC.
Position N 47°53' W 003°55'.

Type: Fishing. MMSI: 228156900.

Date/timePositionNaut miles runAvg speedWind from/ knotsBaromVisibWave heightAir tempDewpointWater temp
2017-Nov-19 23:37N 47°53' W 003°55'1 0.7
2017-Nov-19 21:37N 47°51' W 003°56'1 8.6
2017-Nov-19 21:30N 47°51' W 003°57'5 9.4
2017-Nov-19 20:59N 47°46' W 003°56'2 1.7
2017-Nov-19 19:48N 47°48' W 003°55'2 6.2
2017-Nov-19 19:27N 47°49' W 003°59'  
2017-Nov-16 22:15N 47°50' W 003°57'1 3.1
2017-Nov-16 21:58N 47°49' W 003°56'2 4.2
2017-Nov-16 21:29N 47°48' W 003°54'2 2.1
2017-Nov-16 20:37N 47°46' W 003°52'2 6.0
2017-Nov-16 20:12N 47°48' W 003°55'3 5.9
2017-Nov-16 19:38N 47°50' W 003°59'2 1.7
2017-Nov-16 18:39N 47°50' W 003°57'0 0.3
2017-Nov-16 18:24N 47°50' W 003°57'0 0.4
2017-Nov-16 17:34N 47°50' W 003°57'0 0.3
2017-Nov-16 16:57N 47°50' W 003°57'0 0.5
2017-Nov-16 16:28N 47°50' W 003°57'3 0.2
2017-Nov-15 22:22N 47°53' W 003°55'1 2.0
2017-Nov-15 21:58N 47°52' W 003°55'3 6.1
2017-Nov-15 21:29N 47°49' W 003°56'1 2.2
2017-Nov-15 20:59N 47°50' W 003°56'2 3.3
2017-Nov-15 20:26N 47°50' W 003°59'3 5.9
2017-Nov-15 19:56N 47°48' W 003°55'1 1.2
2017-Nov-15 19:20N 47°48' W 003°56'1 2.0
2017-Nov-15 19:00N 47°49' W 003°56'1 0.7
2017-Nov-15 18:14N 47°49' W 003°57'0 0.7
2017-Nov-15 17:52N 47°49' W 003°57'1 1.3
2017-Nov-15 17:29N 47°50' W 003°58'2 0.1
2017-Nov-14 21:25N 47°51' W 003°56'2 3.7
2017-Nov-14 20:49N 47°49' W 003°55'2 2.7
2017-Nov-14 20:03N 47°50' W 003°58'2 7.6
2017-Nov-14 19:47N 47°49' W 003°56'1 0.8
2017-Nov-14 18:47N 47°49' W 003°56'2 1.3
2017-Nov-14 17:06N 47°50' W 003°60'3 0.2
2017-Nov-13 22:00N 47°51' W 003°56'1 0.0
2017-Nov-13 01:59N 47°51' W 003°57'2 4.1
2017-Nov-13 01:29N 47°49' W 003°55'0 0.8
2017-Nov-13 00:59N 47°49' W 003°55'1 0.7
2017-Nov-13 00:12N 47°48' W 003°55'2 7.5
2017-Nov-12 23:56N 47°47' W 003°53'4 9.3
2017-Nov-12 23:28N 47°45' W 003°47'4 9.2
2017-Nov-12 23:00N 47°44' W 003°41'3 5.9
2017-Nov-12 22:30N 47°43' W 003°37'1 2.3
2017-Nov-12 22:00N 47°43' W 003°35'1 1.3
2017-Nov-12 21:30N 47°44' W 003°36'1 1.5
2017-Nov-12 21:00N 47°43' W 003°35'0 0.3
2017-Nov-12 20:30N 47°44' W 003°35'4 8.1
2017-Nov-12 20:00N 47°41' W 003°30'0 0.7
2017-Nov-12 19:30N 47°42' W 003°30'1 1.6
2017-Nov-12 19:00N 47°42' W 003°31'3 5.2
2017-Nov-12 18:30N 47°41' W 003°28'0 0.6
2017-Nov-12 18:00N 47°41' W 003°28'4 7.8
2017-Nov-12 17:30N 47°39' W 003°23'4 7.7
2017-Nov-12 17:00N 47°41' W 003°28'5 9.9
2017-Nov-12 16:30N 47°44' W 003°34'5 9.7
2017-Nov-12 16:00N 47°45' W 003°41'10 9.5
2017-Nov-12 14:59N 47°49' W 003°55'  
2017-Nov-10 03:22N 47°51' W 003°56'4 9.9
2017-Nov-10 03:00N 47°48' W 003°55'5 9.3
2017-Nov-10 02:30N 47°45' W 003°49'5 9.5
2017-Nov-10 02:00N 47°44' W 003°42'4 7.8
2017-Nov-10 01:31N 47°44' W 003°36'3 5.2
2017-Nov-10 01:00N 47°43' W 003°32'0 0.3
2017-Nov-10 00:30N 47°43' W 003°33'4 7.5
2017-Nov-10 00:01N 47°41' W 003°28'  
Track history (hours):
 
Tides and Currents Weather Stations Pressure Air Temp Water Temp Dewpoint Dewpoint Depression Visibility Wind Speed Wind Dir Waves Ship Positions

F/V Berceaudelocean

Last reported at 2017-Nov-19 23:37 UTC. Time now 2017-Nov-22 15:05 UTC.
Position N 47°53' W 003°55'.

Type: Fishing. MMSI: 228156900.

Date/timePositionNaut miles runAvg speedWind from/ knotsBaromVisibWave heightAir tempDewpointWater temp
2017-Nov-19 23:37N 47°53' W 003°55'1 0.7
2017-Nov-19 21:37N 47°51' W 003°56'1 8.6
2017-Nov-19 21:30N 47°51' W 003°57'5 9.4
2017-Nov-19 20:59N 47°46' W 003°56'2 1.7
2017-Nov-19 19:48N 47°48' W 003°55'2 6.2
2017-Nov-19 19:27N 47°49' W 003°59'  
2017-Nov-16 22:15N 47°50' W 003°57'1 3.1
2017-Nov-16 21:58N 47°49' W 003°56'2 4.2
2017-Nov-16 21:29N 47°48' W 003°54'2 2.1
2017-Nov-16 20:37N 47°46' W 003°52'2 6.0
2017-Nov-16 20:12N 47°48' W 003°55'3 5.9
2017-Nov-16 19:38N 47°50' W 003°59'2 1.7
2017-Nov-16 18:39N 47°50' W 003°57'0 0.3
2017-Nov-16 18:24N 47°50' W 003°57'0 0.4
2017-Nov-16 17:34N 47°50' W 003°57'0 0.3
2017-Nov-16 16:57N 47°50' W 003°57'0 0.5
2017-Nov-16 16:28N 47°50' W 003°57'3 0.2
2017-Nov-15 22:22N 47°53' W 003°55'1 2.0
2017-Nov-15 21:58N 47°52' W 003°55'3 6.1
2017-Nov-15 21:29N 47°49' W 003°56'1 2.2
2017-Nov-15 20:59N 47°50' W 003°56'2 3.3
2017-Nov-15 20:26N 47°50' W 003°59'3 5.9
2017-Nov-15 19:56N 47°48' W 003°55'1 1.2
2017-Nov-15 19:20N 47°48' W 003°56'1 2.0
2017-Nov-15 19:00N 47°49' W 003°56'1 0.7
2017-Nov-15 18:14N 47°49' W 003°57'0 0.7
2017-Nov-15 17:52N 47°49' W 003°57'1 1.3
2017-Nov-15 17:29N 47°50' W 003°58'2 0.1
2017-Nov-14 21:25N 47°51' W 003°56'2 3.7
2017-Nov-14 20:49N 47°49' W 003°55'2 2.7
2017-Nov-14 20:03N 47°50' W 003°58'2 7.6
2017-Nov-14 19:47N 47°49' W 003°56'1 0.8
2017-Nov-14 18:47N 47°49' W 003°56'2 1.3
2017-Nov-14 17:06N 47°50' W 003°60'3 0.2
2017-Nov-13 22:00N 47°51' W 003°56'1 0.0
2017-Nov-13 01:59N 47°51' W 003°57'2 4.1
2017-Nov-13 01:29N 47°49' W 003°55'0 0.8
2017-Nov-13 00:59N 47°49' W 003°55'1 0.7
2017-Nov-13 00:12N 47°48' W 003°55'2 7.5
2017-Nov-12 23:56N 47°47' W 003°53'4 9.3
2017-Nov-12 23:28N 47°45' W 003°47'4 9.2
2017-Nov-12 23:00N 47°44' W 003°41'3 5.9
2017-Nov-12 22:30N 47°43' W 003°37'1 2.3
2017-Nov-12 22:00N 47°43' W 003°35'1 1.3
2017-Nov-12 21:30N 47°44' W 003°36'1 1.5
2017-Nov-12 21:00N 47°43' W 003°35'0 0.3
2017-Nov-12 20:30N 47°44' W 003°35'4 8.1
2017-Nov-12 20:00N 47°41' W 003°30'0 0.7
2017-Nov-12 19:30N 47°42' W 003°30'1 1.6
2017-Nov-12 19:00N 47°42' W 003°31'3 5.2
2017-Nov-12 18:30N 47°41' W 003°28'0 0.6
2017-Nov-12 18:00N 47°41' W 003°28'4 7.8
2017-Nov-12 17:30N 47°39' W 003°23'4 7.7
2017-Nov-12 17:00N 47°41' W 003°28'5 9.9
2017-Nov-12 16:30N 47°44' W 003°34'5 9.7
2017-Nov-12 16:00N 47°45' W 003°41'10 9.5
2017-Nov-12 14:59N 47°49' W 003°55'  
2017-Nov-10 03:22N 47°51' W 003°56'4 9.9
2017-Nov-10 03:00N 47°48' W 003°55'5 9.3
2017-Nov-10 02:30N 47°45' W 003°49'5 9.5
2017-Nov-10 02:00N 47°44' W 003°42'4 7.8
2017-Nov-10 01:31N 47°44' W 003°36'3 5.2
2017-Nov-10 01:00N 47°43' W 003°32'0 0.3
2017-Nov-10 00:30N 47°43' W 003°33'4 7.5
2017-Nov-10 00:01N 47°41' W 003°28'  

Dump ship's entire track history